sensor_id;sensor_type;location;lat;lon;timestamp;noise_LAeq;noise_LA_min;noise_LA_max;noise_LA01;noise_LA95
66456;Laerm;56833;52.254;5.598;2023-06-04T00:00:08;47.45;44.97;53.26;;
66456;Laerm;56833;52.254;5.598;2023-06-04T00:00:19;48.49;44.79;55.18;;
66456;Laerm;56833;52.254;5.598;2023-06-04T00:00:29;47.46;44.53;52.28;;
66456;Laerm;56833;52.254;5.598;2023-06-04T00:00:39;46.82;44.84;51.78;;
66456;Laerm;56833;52.254;5.598;2023-06-04T00:00:50;47.15;45.27;54.52;;
66456;Laerm;56833;52.254;5.598;2023-06-04T00:01:00;47.11;45.18;51.44;;
66456;Laerm;56833;52.254;5.598;2023-06-04T00:01:10;49.84;45.25;53.11;;
66456;Laerm;56833;52.254;5.598;2023-06-04T00:01:20;47.67;44.78;53.27;;
66456;Laerm;56833;52.254;5.598;2023-06-04T00:01:31;47.07;44.89;52.09;;
66456;Laerm;56833;52.254;5.598;2023-06-04T00:01:41;46.77;45.03;48.71;;
66456;Laerm;56833;52.254;5.598;2023-06-04T00:01:51;48.21;45.16;54.91;;
66456;Laerm;56833;52.254;5.598;2023-06-04T00:02:01;46.75;44.96;52.74;;
66456;Laerm;56833;52.254;5.598;2023-06-04T00:02:12;46.37;44.32;52.94;;
66456;Laerm;56833;52.254;5.598;2023-06-04T00:02:22;45.84;44.54;48.52;;
66456;Laerm;56833;52.254;5.598;2023-06-04T00:02:33;49.33;45.33;55.73;;
66456;Laerm;56833;52.254;5.598;2023-06-04T00:02:43;48.80;45.62;53.38;;
66456;Laerm;56833;52.254;5.598;2023-06-04T00:02:53;48.65;46.09;51.65;;
66456;Laerm;56833;52.254;5.598;2023-06-04T00:03:03;48.01;45.41;50.91;;
66456;Laerm;56833;52.254;5.598;2023-06-04T00:03:13;47.91;44.67;50.69;;
66456;Laerm;56833;52.254;5.598;2023-06-04T00:03:24;49.46;45.17;54.34;;
66456;Laerm;56833;52.254;5.598;2023-06-04T00:03:34;49.52;46.39;53.02;;
66456;Laerm;56833;52.254;5.598;2023-06-04T00:03:45;48.23;45.14;51.91;;
66456;Laerm;56833;52.254;5.598;2023-06-04T00:03:55;48.47;45.22;53.47;;
66456;Laerm;56833;52.254;5.598;2023-06-04T00:04:05;51.09;46.22;55.72;;
66456;Laerm;56833;52.254;5.598;2023-06-04T00:04:15;50.04;45.04;54.90;;
66456;Laerm;56833;52.254;5.598;2023-06-04T00:04:26;51.08;44.34;56.03;;
66456;Laerm;56833;52.254;5.598;2023-06-04T00:04:36;49.44;45.02;53.71;;
66456;Laerm;56833;52.254;5.598;2023-06-04T00:04:46;48.55;45.82;53.17;;
66456;Laerm;56833;52.254;5.598;2023-06-04T00:04:56;50.08;45.63;55.74;;
66456;Laerm;56833;52.254;5.598;2023-06-04T00:05:07;49.81;45.24;54.56;;
66456;Laerm;56833;52.254;5.598;2023-06-04T00:05:17;49.82;45.17;55.90;;
66456;Laerm;56833;52.254;5.598;2023-06-04T00:05:27;52.82;46.30;58.70;;
66456;Laerm;56833;52.254;5.598;2023-06-04T00:05:38;50.98;47.36;55.44;;
66456;Laerm;56833;52.254;5.598;2023-06-04T00:05:48;51.85;45.84;56.75;;
66456;Laerm;56833;52.254;5.598;2023-06-04T00:05:58;51.20;46.44;56.90;;
66456;Laerm;56833;52.254;5.598;2023-06-04T00:06:08;51.40;46.17;56.73;;
66456;Laerm;56833;52.254;5.598;2023-06-04T00:06:18;50.68;46.54;55.86;;
66456;Laerm;56833;52.254;5.598;2023-06-04T00:06:29;52.73;45.76;56.49;;
66456;Laerm;56833;52.254;5.598;2023-06-04T00:06:39;49.16;45.91;53.99;;
66456;Laerm;56833;52.254;5.598;2023-06-04T00:06:50;49.13;46.30;54.22;;
66456;Laerm;56833;52.254;5.598;2023-06-04T00:07:00;50.05;46.04;57.11;;
66456;Laerm;56833;52.254;5.598;2023-06-04T00:07:10;49.50;45.26;54.96;;
66456;Laerm;56833;52.254;5.598;2023-06-04T00:07:20;52.69;45.25;59.36;;
66456;Laerm;56833;52.254;5.598;2023-06-04T00:07:30;51.59;47.87;55.66;;
66456;Laerm;56833;52.254;5.598;2023-06-04T00:07:41;51.30;44.51;56.21;;
66456;Laerm;56833;52.254;5.598;2023-06-04T00:07:51;52.34;46.73;55.54;;
66456;Laerm;56833;52.254;5.598;2023-06-04T00:08:01;50.33;46.15;53.88;;
66456;Laerm;56833;52.254;5.598;2023-06-04T00:08:11;52.50;44.91;55.84;;
66456;Laerm;56833;52.254;5.598;2023-06-04T00:08:22;50.66;44.41;54.05;;
66456;Laerm;56833;52.254;5.598;2023-06-04T00:08:32;46.18;43.90;55.08;;
66456;Laerm;56833;52.254;5.598;2023-06-04T00:08:42;51.15;44.67;55.28;;
66456;Laerm;56833;52.254;5.598;2023-06-04T00:08:53;47.91;44.68;52.77;;
66456;Laerm;56833;52.254;5.598;2023-06-04T00:09:03;48.12;44.99;53.22;;
66456;Laerm;56833;52.254;5.598;2023-06-04T00:09:13;48.57;44.81;53.84;;
66456;Laerm;56833;52.254;5.598;2023-06-04T00:09:23;49.27;45.09;55.13;;
66456;Laerm;56833;52.254;5.598;2023-06-04T00:09:33;48.31;44.72;58.07;;
66456;Laerm;56833;52.254;5.598;2023-06-04T00:09:44;54.27;45.53;58.87;;
66456;Laerm;56833;52.254;5.598;2023-06-04T00:09:56;49.07;44.56;52.45;;
66456;Laerm;56833;52.254;5.598;2023-06-04T00:10:07;48.46;45.16;53.54;;
66456;Laerm;56833;52.254;5.598;2023-06-04T00:10:17;48.52;45.32;58.46;;
66456;Laerm;56833;52.254;5.598;2023-06-04T00:10:27;49.98;45.94;58.24;;
66456;Laerm;56833;52.254;5.598;2023-06-04T00:10:37;48.97;44.63;59.53;;
66456;Laerm;56833;52.254;5.598;2023-06-04T00:10:49;51.78;45.46;57.98;;
66456;Laerm;56833;52.254;5.598;2023-06-04T00:11:00;48.44;45.29;55.63;;
66456;Laerm;56833;52.254;5.598;2023-06-04T00:11:10;47.55;44.92;54.25;;
66456;Laerm;56833;52.254;5.598;2023-06-04T00:11:20;48.05;44.86;54.92;;
66456;Laerm;56833;52.254;5.598;2023-06-04T00:11:30;49.14;44.39;62.99;;
66456;Laerm;56833;52.254;5.598;2023-06-04T00:11:43;47.99;44.66;55.83;;
66456;Laerm;56833;52.254;5.598;2023-06-04T00:11:55;47.34;44.39;55.27;;
66456;Laerm;56833;52.254;5.598;2023-06-04T00:12:06;48.94;45.01;57.42;;
66456;Laerm;56833;52.254;5.598;2023-06-04T00:12:16;46.81;44.69;50.82;;
66456;Laerm;56833;52.254;5.598;2023-06-04T00:12:26;49.14;45.27;52.85;;
66456;Laerm;56833;52.254;5.598;2023-06-04T00:12:37;49.46;45.15;52.62;;
66456;Laerm;56833;52.254;5.598;2023-06-04T00:12:47;47.58;44.80;53.78;;
66456;Laerm;56833;52.254;5.598;2023-06-04T00:12:58;46.43;44.59;49.38;;
66456;Laerm;56833;52.254;5.598;2023-06-04T00:13:08;46.93;44.71;52.83;;
66456;Laerm;56833;52.254;5.598;2023-06-04T00:13:18;48.14;44.62;54.86;;
66456;Laerm;56833;52.254;5.598;2023-06-04T00:13:28;46.37;44.25;54.43;;
66456;Laerm;56833;52.254;5.598;2023-06-04T00:13:39;47.09;44.53;54.41;;
66456;Laerm;56833;52.254;5.598;2023-06-04T00:13:49;46.14;44.21;51.23;;
66456;Laerm;56833;52.254;5.598;2023-06-04T00:13:59;45.98;44.21;48.96;;
66456;Laerm;56833;52.254;5.598;2023-06-04T00:14:10;45.81;44.10;48.53;;
66456;Laerm;56833;52.254;5.598;2023-06-04T00:14:20;45.83;44.19;48.48;;
66456;Laerm;56833;52.254;5.598;2023-06-04T00:14:30;47.43;44.27;54.86;;
66456;Laerm;56833;52.254;5.598;2023-06-04T00:14:41;47.91;44.78;51.84;;
66456;Laerm;56833;52.254;5.598;2023-06-04T00:14:51;48.75;43.99;52.02;;
66456;Laerm;56833;52.254;5.598;2023-06-04T00:15:01;47.90;45.70;50.41;;
66456;Laerm;56833;52.254;5.598;2023-06-04T00:15:12;48.87;45.38;55.17;;
66456;Laerm;56833;52.254;5.598;2023-06-04T00:15:22;50.30;44.63;55.42;;
66456;Laerm;56833;52.254;5.598;2023-06-04T00:15:32;51.12;45.07;56.27;;
66456;Laerm;56833;52.254;5.598;2023-06-04T00:15:43;49.23;44.80;53.38;;
66456;Laerm;56833;52.254;5.598;2023-06-04T00:15:53;50.76;45.37;54.70;;
66456;Laerm;56833;52.254;5.598;2023-06-04T00:16:03;49.68;46.26;55.64;;
66456;Laerm;56833;52.254;5.598;2023-06-04T00:16:14;49.05;45.53;55.87;;
66456;Laerm;56833;52.254;5.598;2023-06-04T00:16:24;48.67;45.74;52.04;;
66456;Laerm;56833;52.254;5.598;2023-06-04T00:16:34;48.84;44.82;52.49;;
66456;Laerm;56833;52.254;5.598;2023-06-04T00:16:45;49.18;44.98;53.61;;
66456;Laerm;56833;52.254;5.598;2023-06-04T00:16:55;49.27;45.25;56.12;;
66456;Laerm;56833;52.254;5.598;2023-06-04T00:17:05;46.50;44.68;52.60;;
66456;Laerm;56833;52.254;5.598;2023-06-04T00:17:16;47.16;44.60;51.79;;
66456;Laerm;56833;52.254;5.598;2023-06-04T00:17:26;46.56;44.81;49.69;;
66456;Laerm;56833;52.254;5.598;2023-06-04T00:17:36;48.29;44.96;57.03;;
66456;Laerm;56833;52.254;5.598;2023-06-04T00:17:46;47.29;44.98;52.18;;
66456;Laerm;56833;52.254;5.598;2023-06-04T00:17:57;49.76;44.99;57.14;;
66456;Laerm;56833;52.254;5.598;2023-06-04T00:18:07;48.27;44.52;57.74;;
66456;Laerm;56833;52.254;5.598;2023-06-04T00:18:17;50.70;45.27;58.07;;
66456;Laerm;56833;52.254;5.598;2023-06-04T00:18:27;48.75;44.77;56.72;;
66456;Laerm;56833;52.254;5.598;2023-06-04T00:18:38;50.12;44.78;57.31;;
66456;Laerm;56833;52.254;5.598;2023-06-04T00:18:48;50.33;45.25;56.60;;
66456;Laerm;56833;52.254;5.598;2023-06-04T00:18:58;51.11;45.20;56.72;;
66456;Laerm;56833;52.254;5.598;2023-06-04T00:19:09;49.24;45.60;56.15;;
66456;Laerm;56833;52.254;5.598;2023-06-04T00:19:19;49.15;44.50;56.66;;
66456;Laerm;56833;52.254;5.598;2023-06-04T00:19:29;49.95;45.52;54.97;;
66456;Laerm;56833;52.254;5.598;2023-06-04T00:19:40;50.83;45.83;56.64;;
66456;Laerm;56833;52.254;5.598;2023-06-04T00:19:50;49.57;45.56;56.12;;
66456;Laerm;56833;52.254;5.598;2023-06-04T00:20:01;49.53;45.39;56.00;;
66456;Laerm;56833;52.254;5.598;2023-06-04T00:20:11;50.83;46.37;57.77;;
66456;Laerm;56833;52.254;5.598;2023-06-04T00:20:21;47.97;45.18;58.08;;
66456;Laerm;56833;52.254;5.598;2023-06-04T00:20:32;48.17;45.03;55.01;;
66456;Laerm;56833;52.254;5.598;2023-06-04T00:20:42;47.83;45.42;53.48;;
66456;Laerm;56833;52.254;5.598;2023-06-04T00:20:52;49.13;45.38;58.04;;
66456;Laerm;56833;52.254;5.598;2023-06-04T00:21:02;49.93;44.98;52.98;;
66456;Laerm;56833;52.254;5.598;2023-06-04T00:21:12;50.50;44.86;58.39;;
66456;Laerm;56833;52.254;5.598;2023-06-04T00:21:23;48.74;45.19;53.12;;
66456;Laerm;56833;52.254;5.598;2023-06-04T00:21:33;47.90;44.99;55.44;;
66456;Laerm;56833;52.254;5.598;2023-06-04T00:21:43;48.25;44.57;53.09;;
66456;Laerm;56833;52.254;5.598;2023-06-04T00:21:54;47.80;45.21;53.90;;
66456;Laerm;56833;52.254;5.598;2023-06-04T00:22:05;47.19;45.09;53.84;;
66456;Laerm;56833;52.254;5.598;2023-06-04T00:22:16;46.84;44.51;52.13;;
66456;Laerm;56833;52.254;5.598;2023-06-04T00:22:26;46.56;44.44;51.39;;
66456;Laerm;56833;52.254;5.598;2023-06-04T00:22:36;46.28;44.72;48.76;;
66456;Laerm;56833;52.254;5.598;2023-06-04T00:22:47;46.70;44.72;50.86;;
66456;Laerm;56833;52.254;5.598;2023-06-04T00:22:57;48.53;44.82;61.83;;
66456;Laerm;56833;52.254;5.598;2023-06-04T00:23:07;48.18;44.69;54.26;;
66456;Laerm;56833;52.254;5.598;2023-06-04T00:23:17;48.18;44.99;54.01;;
66456;Laerm;56833;52.254;5.598;2023-06-04T00:23:27;48.21;44.44;54.18;;
66456;Laerm;56833;52.254;5.598;2023-06-04T00:23:38;47.20;44.89;51.46;;
66456;Laerm;56833;52.254;5.598;2023-06-04T00:23:48;47.16;44.62;52.47;;
66456;Laerm;56833;52.254;5.598;2023-06-04T00:23:59;47.27;45.15;52.42;;
66456;Laerm;56833;52.254;5.598;2023-06-04T00:24:09;47.37;44.57;55.37;;
66456;Laerm;56833;52.254;5.598;2023-06-04T00:24:22;47.48;44.93;51.53;;
66456;Laerm;56833;52.254;5.598;2023-06-04T00:24:32;46.66;44.94;50.78;;
66456;Laerm;56833;52.254;5.598;2023-06-04T00:24:42;48.77;44.61;53.81;;
66456;Laerm;56833;52.254;5.598;2023-06-04T00:24:53;48.69;44.83;54.10;;
66456;Laerm;56833;52.254;5.598;2023-06-04T00:25:03;49.90;44.83;56.18;;
66456;Laerm;56833;52.254;5.598;2023-06-04T00:25:14;48.64;44.62;55.83;;
66456;Laerm;56833;52.254;5.598;2023-06-04T00:25:24;48.31;44.97;54.75;;
66456;Laerm;56833;52.254;5.598;2023-06-04T00:25:34;47.64;44.93;55.37;;
66456;Laerm;56833;52.254;5.598;2023-06-04T00:25:45;47.21;44.16;51.59;;
66456;Laerm;56833;52.254;5.598;2023-06-04T00:25:56;47.07;44.40;52.71;;
66456;Laerm;56833;52.254;5.598;2023-06-04T00:26:06;46.89;44.85;51.13;;
66456;Laerm;56833;52.254;5.598;2023-06-04T00:26:16;46.76;44.31;49.78;;
66456;Laerm;56833;52.254;5.598;2023-06-04T00:26:27;47.15;44.99;51.22;;
66456;Laerm;56833;52.254;5.598;2023-06-04T00:26:37;48.96;44.35;55.36;;
66456;Laerm;56833;52.254;5.598;2023-06-04T00:26:48;47.94;44.56;55.66;;
66456;Laerm;56833;52.254;5.598;2023-06-04T00:26:58;48.30;44.87;55.92;;
66456;Laerm;56833;52.254;5.598;2023-06-04T00:27:08;48.92;44.98;54.68;;
66456;Laerm;56833;52.254;5.598;2023-06-04T00:27:19;50.14;45.49;55.77;;
66456;Laerm;56833;52.254;5.598;2023-06-04T00:27:29;48.64;44.98;55.16;;
66456;Laerm;56833;52.254;5.598;2023-06-04T00:27:39;48.06;44.81;55.54;;
66456;Laerm;56833;52.254;5.598;2023-06-04T00:27:50;51.36;44.85;56.74;;
66456;Laerm;56833;52.254;5.598;2023-06-04T00:28:00;52.13;45.70;59.01;;
66456;Laerm;56833;52.254;5.598;2023-06-04T00:28:10;48.57;44.87;54.67;;
66456;Laerm;56833;52.254;5.598;2023-06-04T00:28:20;47.79;44.99;52.07;;
66456;Laerm;56833;52.254;5.598;2023-06-04T00:28:31;49.05;45.13;54.17;;
66456;Laerm;56833;52.254;5.598;2023-06-04T00:28:41;47.79;44.66;51.75;;
66456;Laerm;56833;52.254;5.598;2023-06-04T00:28:53;46.68;44.61;52.96;;
66456;Laerm;56833;52.254;5.598;2023-06-04T00:29:04;47.17;44.79;54.81;;
66456;Laerm;56833;52.254;5.598;2023-06-04T00:29:14;47.01;45.04;54.56;;
66456;Laerm;56833;52.254;5.598;2023-06-04T00:29:25;47.97;44.97;54.19;;
66456;Laerm;56833;52.254;5.598;2023-06-04T00:29:35;46.65;44.32;50.61;;
66456;Laerm;56833;52.254;5.598;2023-06-04T00:29:46;49.78;45.65;54.01;;
66456;Laerm;56833;52.254;5.598;2023-06-04T00:29:56;49.53;45.28;56.07;;
66456;Laerm;56833;52.254;5.598;2023-06-04T00:30:06;49.38;44.88;55.70;;
66456;Laerm;56833;52.254;5.598;2023-06-04T00:30:17;49.32;45.00;56.61;;
66456;Laerm;56833;52.254;5.598;2023-06-04T00:30:27;49.81;45.47;54.77;;
66456;Laerm;56833;52.254;5.598;2023-06-04T00:30:37;47.85;45.19;51.40;;
66456;Laerm;56833;52.254;5.598;2023-06-04T00:30:47;46.54;44.71;50.58;;
66456;Laerm;56833;52.254;5.598;2023-06-04T00:30:57;46.21;44.48;49.99;;
66456;Laerm;56833;52.254;5.598;2023-06-04T00:31:08;46.24;44.61;50.28;;
66456;Laerm;56833;52.254;5.598;2023-06-04T00:31:18;46.01;44.35;53.34;;
66456;Laerm;56833;52.254;5.598;2023-06-04T00:31:28;46.41;44.40;52.17;;
66456;Laerm;56833;52.254;5.598;2023-06-04T00:31:38;47.54;45.70;57.23;;
66456;Laerm;56833;52.254;5.598;2023-06-04T00:31:49;47.31;45.19;59.59;;
66456;Laerm;56833;52.254;5.598;2023-06-04T00:31:59;46.48;44.73;54.60;;
66456;Laerm;56833;52.254;5.598;2023-06-04T00:32:09;46.27;44.23;52.53;;
66456;Laerm;56833;52.254;5.598;2023-06-04T00:32:20;46.17;44.15;51.05;;
66456;Laerm;56833;52.254;5.598;2023-06-04T00:32:30;46.24;44.06;52.15;;
66456;Laerm;56833;52.254;5.598;2023-06-04T00:32:41;45.85;44.12;51.64;;
66456;Laerm;56833;52.254;5.598;2023-06-04T00:32:51;46.65;44.83;53.28;;
66456;Laerm;56833;52.254;5.598;2023-06-04T00:33:01;47.57;44.81;53.72;;
66456;Laerm;56833;52.254;5.598;2023-06-04T00:33:11;47.32;44.78;51.71;;
66456;Laerm;56833;52.254;5.598;2023-06-04T00:33:22;46.59;44.63;51.09;;
66456;Laerm;56833;52.254;5.598;2023-06-04T00:33:32;45.86;44.47;47.78;;
66456;Laerm;56833;52.254;5.598;2023-06-04T00:33:42;46.09;44.73;47.32;;
66456;Laerm;56833;52.254;5.598;2023-06-04T00:33:52;46.13;44.51;49.55;;
66456;Laerm;56833;52.254;5.598;2023-06-04T00:34:03;46.34;44.61;49.93;;
66456;Laerm;56833;52.254;5.598;2023-06-04T00:34:13;46.20;44.65;48.67;;
66456;Laerm;56833;52.254;5.598;2023-06-04T00:34:23;46.94;44.79;51.96;;
66456;Laerm;56833;52.254;5.598;2023-06-04T00:34:34;46.41;44.56;51.39;;
66456;Laerm;56833;52.254;5.598;2023-06-04T00:34:50;46.92;44.53;55.77;;
66456;Laerm;56833;52.254;5.598;2023-06-04T00:35:00;47.85;44.94;53.04;;
66456;Laerm;56833;52.254;5.598;2023-06-04T00:35:11;46.89;44.96;52.16;;
66456;Laerm;56833;52.254;5.598;2023-06-04T00:35:21;46.93;45.17;51.52;;
66456;Laerm;56833;52.254;5.598;2023-06-04T00:35:32;46.23;44.50;48.47;;
66456;Laerm;56833;52.254;5.598;2023-06-04T00:35:42;46.25;44.58;49.38;;
66456;Laerm;56833;52.254;5.598;2023-06-04T00:35:53;46.55;44.80;50.44;;
66456;Laerm;56833;52.254;5.598;2023-06-04T00:36:03;46.48;44.96;50.85;;
66456;Laerm;56833;52.254;5.598;2023-06-04T00:36:13;46.92;45.14;54.89;;
66456;Laerm;56833;52.254;5.598;2023-06-04T00:36:23;46.79;44.55;52.62;;
66456;Laerm;56833;52.254;5.598;2023-06-04T00:36:34;46.13;44.21;49.45;;
66456;Laerm;56833;52.254;5.598;2023-06-04T00:36:44;47.02;44.60;51.75;;
66456;Laerm;56833;52.254;5.598;2023-06-04T00:36:54;46.74;44.90;51.30;;
66456;Laerm;56833;52.254;5.598;2023-06-04T00:37:04;46.35;44.96;50.77;;
66456;Laerm;56833;52.254;5.598;2023-06-04T00:37:15;46.05;44.43;48.09;;
66456;Laerm;56833;52.254;5.598;2023-06-04T00:37:25;45.72;44.32;47.78;;
66456;Laerm;56833;52.254;5.598;2023-06-04T00:37:35;45.85;44.34;48.19;;
66456;Laerm;56833;52.254;5.598;2023-06-04T00:37:45;45.81;44.13;51.15;;
66456;Laerm;56833;52.254;5.598;2023-06-04T00:37:56;46.42;44.30;49.40;;
66456;Laerm;56833;52.254;5.598;2023-06-04T00:38:06;45.96;44.38;47.48;;
66456;Laerm;56833;52.254;5.598;2023-06-04T00:38:16;45.93;44.68;49.56;;
66456;Laerm;56833;52.254;5.598;2023-06-04T00:38:26;45.91;44.58;47.42;;
66456;Laerm;56833;52.254;5.598;2023-06-04T00:38:37;46.67;44.13;48.73;;
66456;Laerm;56833;52.254;5.598;2023-06-04T00:38:50;47.25;44.97;53.48;;
66456;Laerm;56833;52.254;5.598;2023-06-04T00:39:00;47.08;44.73;52.09;;
66456;Laerm;56833;52.254;5.598;2023-06-04T00:39:10;46.99;44.99;49.84;;
66456;Laerm;56833;52.254;5.598;2023-06-04T00:39:21;46.92;44.48;51.79;;
66456;Laerm;56833;52.254;5.598;2023-06-04T00:39:31;46.52;44.48;50.60;;
66456;Laerm;56833;52.254;5.598;2023-06-04T00:39:42;47.52;44.73;50.77;;
66456;Laerm;56833;52.254;5.598;2023-06-04T00:39:52;47.55;44.51;51.48;;
66456;Laerm;56833;52.254;5.598;2023-06-04T00:40:02;46.40;44.55;50.42;;
66456;Laerm;56833;52.254;5.598;2023-06-04T00:40:13;46.22;43.90;53.00;;
66456;Laerm;56833;52.254;5.598;2023-06-04T00:40:23;46.09;44.83;49.85;;
66456;Laerm;56833;52.254;5.598;2023-06-04T00:40:34;46.11;44.39;47.68;;
66456;Laerm;56833;52.254;5.598;2023-06-04T00:40:44;45.86;44.07;51.14;;
66456;Laerm;56833;52.254;5.598;2023-06-04T00:40:54;46.14;44.31;48.52;;
66456;Laerm;56833;52.254;5.598;2023-06-04T00:41:04;46.63;44.99;52.25;;
66456;Laerm;56833;52.254;5.598;2023-06-04T00:41:15;46.29;44.68;49.24;;
66456;Laerm;56833;52.254;5.598;2023-06-04T00:41:25;46.41;44.71;50.03;;
66456;Laerm;56833;52.254;5.598;2023-06-04T00:41:36;46.32;44.60;48.41;;
66456;Laerm;56833;52.254;5.598;2023-06-04T00:41:46;46.29;44.34;48.82;;
66456;Laerm;56833;52.254;5.598;2023-06-04T00:41:56;46.04;44.76;49.25;;
66456;Laerm;56833;52.254;5.598;2023-06-04T00:42:07;46.01;44.50;49.12;;
66456;Laerm;56833;52.254;5.598;2023-06-04T00:42:17;46.87;44.63;55.94;;
66456;Laerm;56833;52.254;5.598;2023-06-04T00:42:27;46.13;44.46;51.72;;
66456;Laerm;56833;52.254;5.598;2023-06-04T00:42:38;45.69;44.36;47.59;;
66456;Laerm;56833;52.254;5.598;2023-06-04T00:42:48;45.85;44.48;49.05;;
66456;Laerm;56833;52.254;5.598;2023-06-04T00:42:59;45.86;44.41;49.83;;
66456;Laerm;56833;52.254;5.598;2023-06-04T00:43:09;47.93;44.59;63.04;;
66456;Laerm;56833;52.254;5.598;2023-06-04T00:43:20;45.90;44.37;51.26;;
66456;Laerm;56833;52.254;5.598;2023-06-04T00:43:30;46.13;44.50;49.76;;
66456;Laerm;56833;52.254;5.598;2023-06-04T00:43:42;45.48;44.20;47.51;;
66456;Laerm;56833;52.254;5.598;2023-06-04T00:43:55;46.18;44.25;50.15;;
66456;Laerm;56833;52.254;5.598;2023-06-04T00:44:06;46.02;44.67;51.31;;
66456;Laerm;56833;52.254;5.598;2023-06-04T00:44:16;46.08;44.16;50.58;;
66456;Laerm;56833;52.254;5.598;2023-06-04T00:44:27;46.29;44.18;51.40;;
66456;Laerm;56833;52.254;5.598;2023-06-04T00:44:38;45.77;44.53;51.69;;
66456;Laerm;56833;52.254;5.598;2023-06-04T00:44:54;45.73;44.52;50.32;;
66456;Laerm;56833;52.254;5.598;2023-06-04T00:45:07;46.64;44.32;50.68;;
66456;Laerm;56833;52.254;5.598;2023-06-04T00:45:19;45.78;44.21;50.78;;
66456;Laerm;56833;52.254;5.598;2023-06-04T00:45:30;46.03;44.44;51.05;;
66456;Laerm;56833;52.254;5.598;2023-06-04T00:45:41;47.39;44.75;51.47;;
66456;Laerm;56833;52.254;5.598;2023-06-04T00:45:54;46.85;44.35;51.01;;
66456;Laerm;56833;52.254;5.598;2023-06-04T00:46:05;46.84;44.40;50.81;;
66456;Laerm;56833;52.254;5.598;2023-06-04T00:46:16;47.28;44.85;51.06;;
66456;Laerm;56833;52.254;5.598;2023-06-04T00:46:28;49.63;44.39;57.14;;
66456;Laerm;56833;52.254;5.598;2023-06-04T00:46:38;48.54;44.77;52.06;;
66456;Laerm;56833;52.254;5.598;2023-06-04T00:46:49;48.33;44.91;51.98;;
66456;Laerm;56833;52.254;5.598;2023-06-04T00:46:59;46.86;44.62;50.73;;
66456;Laerm;56833;52.254;5.598;2023-06-04T00:47:11;45.81;44.28;49.50;;
66456;Laerm;56833;52.254;5.598;2023-06-04T00:47:22;45.45;44.18;47.52;;
66456;Laerm;56833;52.254;5.598;2023-06-04T00:47:32;45.78;44.41;50.01;;
66456;Laerm;56833;52.254;5.598;2023-06-04T00:47:43;45.98;44.57;49.45;;
66456;Laerm;56833;52.254;5.598;2023-06-04T00:47:53;46.03;44.80;50.65;;
66456;Laerm;56833;52.254;5.598;2023-06-04T00:48:03;45.58;44.05;54.62;;
66456;Laerm;56833;52.254;5.598;2023-06-04T00:48:14;45.52;44.06;49.18;;
66456;Laerm;56833;52.254;5.598;2023-06-04T00:48:24;45.76;44.25;48.40;;
66456;Laerm;56833;52.254;5.598;2023-06-04T00:48:37;45.62;43.87;48.09;;
66456;Laerm;56833;52.254;5.598;2023-06-04T00:48:48;45.86;44.11;50.02;;
66456;Laerm;56833;52.254;5.598;2023-06-04T00:48:58;45.82;44.20;53.07;;
66456;Laerm;56833;52.254;5.598;2023-06-04T00:49:09;46.01;44.41;50.86;;
66456;Laerm;56833;52.254;5.598;2023-06-04T00:49:22;45.76;44.34;49.49;;
66456;Laerm;56833;52.254;5.598;2023-06-04T00:49:32;45.67;44.17;50.82;;
66456;Laerm;56833;52.254;5.598;2023-06-04T00:49:42;45.84;44.05;49.29;;
66456;Laerm;56833;52.254;5.598;2023-06-04T00:49:53;46.37;44.57;53.16;;
66456;Laerm;56833;52.254;5.598;2023-06-04T00:50:06;46.54;44.64;50.59;;
66456;Laerm;56833;52.254;5.598;2023-06-04T00:50:17;46.47;44.36;51.62;;
66456;Laerm;56833;52.254;5.598;2023-06-04T00:50:28;46.17;44.51;50.44;;
66456;Laerm;56833;52.254;5.598;2023-06-04T00:50:38;46.28;44.45;53.00;;
66456;Laerm;56833;52.254;5.598;2023-06-04T00:50:49;46.15;44.28;53.20;;
66456;Laerm;56833;52.254;5.598;2023-06-04T00:51:00;45.86;44.03;50.50;;
66456;Laerm;56833;52.254;5.598;2023-06-04T00:51:11;45.89;44.46;50.39;;
66456;Laerm;56833;52.254;5.598;2023-06-04T00:51:22;47.04;44.44;53.11;;
66456;Laerm;56833;52.254;5.598;2023-06-04T00:51:32;46.06;44.85;48.30;;
66456;Laerm;56833;52.254;5.598;2023-06-04T00:51:42;46.64;44.61;52.34;;
66456;Laerm;56833;52.254;5.598;2023-06-04T00:51:52;46.24;44.40;51.08;;
66456;Laerm;56833;52.254;5.598;2023-06-04T00:52:03;46.18;44.50;50.72;;
66456;Laerm;56833;52.254;5.598;2023-06-04T00:52:13;46.13;44.79;47.96;;
66456;Laerm;56833;52.254;5.598;2023-06-04T00:52:24;46.00;44.66;48.13;;
66456;Laerm;56833;52.254;5.598;2023-06-04T00:52:35;45.48;43.95;46.92;;
66456;Laerm;56833;52.254;5.598;2023-06-04T00:52:45;45.87;44.03;49.59;;
66456;Laerm;56833;52.254;5.598;2023-06-04T00:52:55;46.01;44.31;49.87;;
66456;Laerm;56833;52.254;5.598;2023-06-04T00:53:07;46.34;44.57;52.54;;
66456;Laerm;56833;52.254;5.598;2023-06-04T00:53:18;46.38;44.64;52.82;;
66456;Laerm;56833;52.254;5.598;2023-06-04T00:53:29;46.72;44.57;54.09;;
66456;Laerm;56833;52.254;5.598;2023-06-04T00:53:39;45.86;44.29;52.80;;
66456;Laerm;56833;52.254;5.598;2023-06-04T00:53:50;46.70;44.46;52.86;;
66456;Laerm;56833;52.254;5.598;2023-06-04T00:54:02;46.87;44.66;55.24;;
66456;Laerm;56833;52.254;5.598;2023-06-04T00:54:19;46.59;44.44;58.07;;
66456;Laerm;56833;52.254;5.598;2023-06-04T00:54:30;46.38;44.53;50.44;;
66456;Laerm;56833;52.254;5.598;2023-06-04T00:54:42;46.42;44.92;51.73;;
66456;Laerm;56833;52.254;5.598;2023-06-04T00:54:52;45.63;44.43;49.50;;
66456;Laerm;56833;52.254;5.598;2023-06-04T00:55:04;47.11;44.35;52.89;;
66456;Laerm;56833;52.254;5.598;2023-06-04T00:55:14;46.63;44.45;52.08;;
66456;Laerm;56833;52.254;5.598;2023-06-04T00:55:28;46.55;44.42;54.92;;
66456;Laerm;56833;52.254;5.598;2023-06-04T00:55:38;46.18;44.34;53.42;;
66456;Laerm;56833;52.254;5.598;2023-06-04T00:55:48;45.99;44.23;52.59;;
66456;Laerm;56833;52.254;5.598;2023-06-04T00:55:58;45.73;44.14;50.61;;
66456;Laerm;56833;52.254;5.598;2023-06-04T00:56:09;45.70;44.10;54.60;;
66456;Laerm;56833;52.254;5.598;2023-06-04T00:56:19;45.83;44.16;53.57;;
66456;Laerm;56833;52.254;5.598;2023-06-04T00:56:29;45.75;44.37;52.38;;
66456;Laerm;56833;52.254;5.598;2023-06-04T00:56:39;46.44;44.14;53.56;;
66456;Laerm;56833;52.254;5.598;2023-06-04T00:56:50;46.31;44.13;55.68;;
66456;Laerm;56833;52.254;5.598;2023-06-04T00:57:00;45.96;44.53;53.85;;
66456;Laerm;56833;52.254;5.598;2023-06-04T00:57:10;45.77;44.30;47.44;;
66456;Laerm;56833;52.254;5.598;2023-06-04T00:57:21;45.93;44.12;50.43;;
66456;Laerm;56833;52.254;5.598;2023-06-04T00:57:32;45.58;44.18;47.21;;
66456;Laerm;56833;52.254;5.598;2023-06-04T00:57:42;46.13;44.58;51.65;;
66456;Laerm;56833;52.254;5.598;2023-06-04T00:57:52;46.55;44.65;52.47;;
66456;Laerm;56833;52.254;5.598;2023-06-04T00:58:03;46.53;43.96;53.84;;
66456;Laerm;56833;52.254;5.598;2023-06-04T00:58:16;46.23;44.26;59.30;;
66456;Laerm;56833;52.254;5.598;2023-06-04T00:58:26;45.83;44.11;49.17;;
66456;Laerm;56833;52.254;5.598;2023-06-04T00:58:37;45.97;44.09;52.78;;
66456;Laerm;56833;52.254;5.598;2023-06-04T00:58:48;46.83;44.28;58.67;;
66456;Laerm;56833;52.254;5.598;2023-06-04T00:58:59;45.96;44.55;51.37;;
66456;Laerm;56833;52.254;5.598;2023-06-04T00:59:10;45.75;44.12;48.76;;